sensor_id;sensor_type;location;lat;lon;timestamp;P1;durP1;ratioP1;P2;durP2;ratioP2
2105;SDS011;1059;52.548;13.408;2022-12-19T00:00:43;33.70;;;16.23;;
2105;SDS011;1059;52.548;13.408;2022-12-19T00:03:12;28.07;;;15.87;;
2105;SDS011;1059;52.548;13.408;2022-12-19T00:05:39;26.80;;;15.90;;
2105;SDS011;1059;52.548;13.408;2022-12-19T00:10:39;30.60;;;15.90;;
2105;SDS011;1059;52.548;13.408;2022-12-19T00:13:06;22.53;;;14.37;;
2105;SDS011;1059;52.548;13.408;2022-12-19T00:15:33;33.17;;;17.17;;
2105;SDS011;1059;52.548;13.408;2022-12-19T00:18:00;30.80;;;17.07;;
2105;SDS011;1059;52.548;13.408;2022-12-19T00:20:28;28.93;;;17.27;;
2105;SDS011;1059;52.548;13.408;2022-12-19T00:22:56;25.63;;;15.00;;
2105;SDS011;1059;52.548;13.408;2022-12-19T00:25:23;25.10;;;15.17;;
2105;SDS011;1059;52.548;13.408;2022-12-19T00:27:50;25.83;;;15.20;;
2105;SDS011;1059;52.548;13.408;2022-12-19T00:30:16;27.93;;;15.57;;
2105;SDS011;1059;52.548;13.408;2022-12-19T00:32:43;31.67;;;15.50;;
2105;SDS011;1059;52.548;13.408;2022-12-19T00:35:10;24.60;;;14.77;;
2105;SDS011;1059;52.548;13.408;2022-12-19T00:37:38;26.97;;;15.37;;
2105;SDS011;1059;52.548;13.408;2022-12-19T00:40:06;26.90;;;15.93;;
2105;SDS011;1059;52.548;13.408;2022-12-19T00:42:33;30.97;;;15.67;;
2105;SDS011;1059;52.548;13.408;2022-12-19T00:45:00;23.17;;;15.17;;
2105;SDS011;1059;52.548;13.408;2022-12-19T00:47:27;24.13;;;14.03;;
2105;SDS011;1059;52.548;13.408;2022-12-19T00:49:53;32.33;;;18.37;;
2105;SDS011;1059;52.548;13.408;2022-12-19T00:52:20;27.33;;;15.00;;
2105;SDS011;1059;52.548;13.408;2022-12-19T00:54:48;25.40;;;14.90;;
2105;SDS011;1059;52.548;13.408;2022-12-19T00:57:15;27.57;;;16.03;;
2105;SDS011;1059;52.548;13.408;2022-12-19T00:59:42;29.57;;;16.80;;
2105;SDS011;1059;52.548;13.408;2022-12-19T01:02:09;25.53;;;14.40;;
2105;SDS011;1059;52.548;13.408;2022-12-19T01:04:36;26.53;;;13.43;;
2105;SDS011;1059;52.548;13.408;2022-12-19T01:07:02;27.47;;;15.20;;
2105;SDS011;1059;52.548;13.408;2022-12-19T01:09:32;24.33;;;14.57;;
2105;SDS011;1059;52.548;13.408;2022-12-19T01:12:02;25.37;;;15.37;;
2105;SDS011;1059;52.548;13.408;2022-12-19T01:14:47;26.77;;;14.87;;
2105;SDS011;1059;52.548;13.408;2022-12-19T01:17:14;27.83;;;16.17;;
2105;SDS011;1059;52.548;13.408;2022-12-19T01:19:41;29.33;;;16.20;;
2105;SDS011;1059;52.548;13.408;2022-12-19T01:22:08;27.90;;;14.80;;
2105;SDS011;1059;52.548;13.408;2022-12-19T01:24:35;25.07;;;15.70;;
2105;SDS011;1059;52.548;13.408;2022-12-19T01:27:04;25.00;;;14.90;;
2105;SDS011;1059;52.548;13.408;2022-12-19T01:29:30;26.47;;;14.30;;
2105;SDS011;1059;52.548;13.408;2022-12-19T01:31:57;23.13;;;14.47;;
2105;SDS011;1059;52.548;13.408;2022-12-19T01:34:24;23.27;;;13.07;;
2105;SDS011;1059;52.548;13.408;2022-12-19T01:36:51;27.67;;;15.70;;
2105;SDS011;1059;52.548;13.408;2022-12-19T01:39:18;25.67;;;14.73;;
2105;SDS011;1059;52.548;13.408;2022-12-19T01:41:44;24.23;;;13.30;;
2105;SDS011;1059;52.548;13.408;2022-12-19T01:44:13;27.43;;;14.23;;
2105;SDS011;1059;52.548;13.408;2022-12-19T01:46:40;23.83;;;13.60;;
2105;SDS011;1059;52.548;13.408;2022-12-19T01:49:11;24.20;;;13.47;;
2105;SDS011;1059;52.548;13.408;2022-12-19T01:51:42;27.80;;;15.07;;
2105;SDS011;1059;52.548;13.408;2022-12-19T01:54:13;29.37;;;15.23;;
2105;SDS011;1059;52.548;13.408;2022-12-19T01:56:45;25.30;;;15.03;;
2105;SDS011;1059;52.548;13.408;2022-12-19T01:59:17;27.43;;;14.00;;
2105;SDS011;1059;52.548;13.408;2022-12-19T02:01:48;23.43;;;14.77;;
2105;SDS011;1059;52.548;13.408;2022-12-19T02:04:19;31.63;;;15.53;;
2105;SDS011;1059;52.548;13.408;2022-12-19T02:06:46;26.70;;;14.40;;
2105;SDS011;1059;52.548;13.408;2022-12-19T02:09:15;28.20;;;15.10;;
2105;SDS011;1059;52.548;13.408;2022-12-19T02:11:42;23.20;;;14.03;;
2105;SDS011;1059;52.548;13.408;2022-12-19T02:14:08;29.63;;;14.50;;
2105;SDS011;1059;52.548;13.408;2022-12-19T02:16:39;25.50;;;14.17;;
2105;SDS011;1059;52.548;13.408;2022-12-19T02:19:20;27.77;;;14.40;;
2105;SDS011;1059;52.548;13.408;2022-12-19T02:22:05;26.23;;;14.33;;
2105;SDS011;1059;52.548;13.408;2022-12-19T02:27:41;28.03;;;14.50;;
2105;SDS011;1059;52.548;13.408;2022-12-19T02:30:39;36.33;;;16.47;;
2105;SDS011;1059;52.548;13.408;2022-12-19T02:33:14;26.57;;;14.30;;
2105;SDS011;1059;52.548;13.408;2022-12-19T02:35:49;25.00;;;14.00;;
2105;SDS011;1059;52.548;13.408;2022-12-19T02:38:24;26.77;;;14.50;;
2105;SDS011;1059;52.548;13.408;2022-12-19T02:40:59;28.47;;;17.63;;
2105;SDS011;1059;52.548;13.408;2022-12-19T02:43:31;30.67;;;16.40;;
2105;SDS011;1059;52.548;13.408;2022-12-19T02:46:06;32.70;;;15.83;;
2105;SDS011;1059;52.548;13.408;2022-12-19T02:48:34;27.60;;;15.87;;
2105;SDS011;1059;52.548;13.408;2022-12-19T02:51:03;26.53;;;15.87;;
2105;SDS011;1059;52.548;13.408;2022-12-19T02:53:30;30.03;;;15.50;;
2105;SDS011;1059;52.548;13.408;2022-12-19T02:59:04;30.00;;;16.13;;
2105;SDS011;1059;52.548;13.408;2022-12-19T03:01:52;28.07;;;15.30;;
2105;SDS011;1059;52.548;13.408;2022-12-19T03:04:26;32.23;;;16.37;;
2105;SDS011;1059;52.548;13.408;2022-12-19T03:06:59;29.60;;;17.47;;
2105;SDS011;1059;52.548;13.408;2022-12-19T03:09:32;29.57;;;17.40;;
2105;SDS011;1059;52.548;13.408;2022-12-19T03:12:06;29.47;;;17.00;;
2105;SDS011;1059;52.548;13.408;2022-12-19T03:14:39;32.20;;;17.10;;
2105;SDS011;1059;52.548;13.408;2022-12-19T03:17:09;32.40;;;15.80;;
2105;SDS011;1059;52.548;13.408;2022-12-19T03:19:37;30.50;;;16.30;;
2105;SDS011;1059;52.548;13.408;2022-12-19T03:22:05;24.17;;;15.40;;
2105;SDS011;1059;52.548;13.408;2022-12-19T03:24:32;33.90;;;18.30;;
2105;SDS011;1059;52.548;13.408;2022-12-19T03:27:00;30.57;;;16.23;;
2105;SDS011;1059;52.548;13.408;2022-12-19T03:29:30;25.07;;;16.10;;
2105;SDS011;1059;52.548;13.408;2022-12-19T03:32:02;32.90;;;15.87;;
2105;SDS011;1059;52.548;13.408;2022-12-19T03:34:35;32.70;;;17.67;;
2105;SDS011;1059;52.548;13.408;2022-12-19T03:37:06;32.57;;;15.80;;
2105;SDS011;1059;52.548;13.408;2022-12-19T03:39:37;34.20;;;17.47;;
2105;SDS011;1059;52.548;13.408;2022-12-19T03:42:05;33.83;;;17.73;;
2105;SDS011;1059;52.548;13.408;2022-12-19T03:44:51;30.77;;;16.97;;
2105;SDS011;1059;52.548;13.408;2022-12-19T03:47:21;29.77;;;17.40;;
2105;SDS011;1059;52.548;13.408;2022-12-19T03:49:53;30.03;;;17.67;;
2105;SDS011;1059;52.548;13.408;2022-12-19T03:52:23;31.13;;;18.40;;
2105;SDS011;1059;52.548;13.408;2022-12-19T03:54:54;31.20;;;16.73;;
2105;SDS011;1059;52.548;13.408;2022-12-19T03:57:28;31.73;;;18.47;;
2105;SDS011;1059;52.548;13.408;2022-12-19T04:00:01;31.13;;;17.40;;
2105;SDS011;1059;52.548;13.408;2022-12-19T04:02:31;32.53;;;18.27;;
2105;SDS011;1059;52.548;13.408;2022-12-19T04:05:04;34.03;;;17.47;;
2105;SDS011;1059;52.548;13.408;2022-12-19T04:07:36;31.33;;;17.50;;
2105;SDS011;1059;52.548;13.408;2022-12-19T04:10:05;31.70;;;18.60;;
2105;SDS011;1059;52.548;13.408;2022-12-19T04:12:35;29.70;;;17.93;;
2105;SDS011;1059;52.548;13.408;2022-12-19T04:15:05;26.00;;;15.00;;
2105;SDS011;1059;52.548;13.408;2022-12-19T04:17:36;30.03;;;18.17;;
2105;SDS011;1059;52.548;13.408;2022-12-19T04:20:08;27.90;;;17.30;;
2105;SDS011;1059;52.548;13.408;2022-12-19T04:22:37;32.47;;;17.73;;
2105;SDS011;1059;52.548;13.408;2022-12-19T04:25:06;29.73;;;18.23;;
2105;SDS011;1059;52.548;13.408;2022-12-19T04:27:36;29.57;;;16.70;;
2105;SDS011;1059;52.548;13.408;2022-12-19T04:30:06;31.77;;;17.13;;
2105;SDS011;1059;52.548;13.408;2022-12-19T04:32:34;30.17;;;18.87;;
2105;SDS011;1059;52.548;13.408;2022-12-19T04:35:03;28.40;;;16.70;;
2105;SDS011;1059;52.548;13.408;2022-12-19T04:37:31;30.17;;;17.77;;
2105;SDS011;1059;52.548;13.408;2022-12-19T04:39:58;30.97;;;17.20;;
2105;SDS011;1059;52.548;13.408;2022-12-19T04:42:25;30.77;;;17.13;;
2105;SDS011;1059;52.548;13.408;2022-12-19T04:44:52;34.50;;;17.47;;
2105;SDS011;1059;52.548;13.408;2022-12-19T04:47:19;31.73;;;16.97;;
2105;SDS011;1059;52.548;13.408;2022-12-19T04:49:45;30.90;;;18.40;;
2105;SDS011;1059;52.548;13.408;2022-12-19T04:52:12;26.90;;;15.93;;
2105;SDS011;1059;52.548;13.408;2022-12-19T04:54:40;30.63;;;17.67;;
2105;SDS011;1059;52.548;13.408;2022-12-19T04:57:07;28.37;;;17.13;;
2105;SDS011;1059;52.548;13.408;2022-12-19T04:59:34;31.80;;;17.37;;
2105;SDS011;1059;52.548;13.408;2022-12-19T05:02:01;29.60;;;17.60;;
2105;SDS011;1059;52.548;13.408;2022-12-19T05:04:28;27.20;;;16.77;;
2105;SDS011;1059;52.548;13.408;2022-12-19T05:06:55;31.70;;;17.47;;
2105;SDS011;1059;52.548;13.408;2022-12-19T05:09:22;30.10;;;17.47;;
2105;SDS011;1059;52.548;13.408;2022-12-19T05:11:50;33.57;;;17.13;;
2105;SDS011;1059;52.548;13.408;2022-12-19T05:14:17;36.57;;;17.60;;
2105;SDS011;1059;52.548;13.408;2022-12-19T05:16:44;30.97;;;17.00;;
2105;SDS011;1059;52.548;13.408;2022-12-19T05:19:11;32.50;;;17.10;;
2105;SDS011;1059;52.548;13.408;2022-12-19T05:21:39;30.60;;;18.10;;
2105;SDS011;1059;52.548;13.408;2022-12-19T05:24:06;38.73;;;17.40;;
2105;SDS011;1059;52.548;13.408;2022-12-19T05:26:33;33.70;;;17.47;;
2105;SDS011;1059;52.548;13.408;2022-12-19T05:29:01;38.17;;;18.10;;
2105;SDS011;1059;52.548;13.408;2022-12-19T05:31:28;32.70;;;18.23;;
2105;SDS011;1059;52.548;13.408;2022-12-19T05:33:55;30.77;;;18.37;;
2105;SDS011;1059;52.548;13.408;2022-12-19T05:36:22;32.97;;;18.60;;
2105;SDS011;1059;52.548;13.408;2022-12-19T05:38:49;36.73;;;17.63;;
2105;SDS011;1059;52.548;13.408;2022-12-19T05:41:16;31.47;;;16.90;;
2105;SDS011;1059;52.548;13.408;2022-12-19T05:43:45;40.23;;;18.40;;
2105;SDS011;1059;52.548;13.408;2022-12-19T05:46:17;25.00;;;15.67;;
2105;SDS011;1059;52.548;13.408;2022-12-19T05:48:44;29.00;;;16.87;;
2105;SDS011;1059;52.548;13.408;2022-12-19T05:51:12;30.50;;;16.97;;
2105;SDS011;1059;52.548;13.408;2022-12-19T05:53:39;29.13;;;16.83;;
2105;SDS011;1059;52.548;13.408;2022-12-19T05:56:07;32.97;;;16.67;;
2105;SDS011;1059;52.548;13.408;2022-12-19T05:58:36;28.50;;;16.53;;
2105;SDS011;1059;52.548;13.408;2022-12-19T06:01:04;30.93;;;17.27;;
2105;SDS011;1059;52.548;13.408;2022-12-19T06:03:33;27.10;;;15.33;;
2105;SDS011;1059;52.548;13.408;2022-12-19T06:06:01;31.33;;;16.97;;
2105;SDS011;1059;52.548;13.408;2022-12-19T06:08:28;29.50;;;17.17;;
2105;SDS011;1059;52.548;13.408;2022-12-19T06:10:57;29.70;;;16.27;;
2105;SDS011;1059;52.548;13.408;2022-12-19T06:13:25;32.60;;;17.23;;
2105;SDS011;1059;52.548;13.408;2022-12-19T06:15:55;29.37;;;16.13;;
2105;SDS011;1059;52.548;13.408;2022-12-19T06:18:23;30.40;;;16.77;;
2105;SDS011;1059;52.548;13.408;2022-12-19T06:20:55;31.43;;;16.80;;
2105;SDS011;1059;52.548;13.408;2022-12-19T06:23:23;33.70;;;18.23;;
2105;SDS011;1059;52.548;13.408;2022-12-19T06:25:50;27.10;;;15.67;;
2105;SDS011;1059;52.548;13.408;2022-12-19T06:28:16;30.63;;;17.03;;
2105;SDS011;1059;52.548;13.408;2022-12-19T06:30:44;28.53;;;16.20;;
2105;SDS011;1059;52.548;13.408;2022-12-19T06:33:10;24.20;;;15.47;;
2105;SDS011;1059;52.548;13.408;2022-12-19T06:35:38;30.23;;;17.47;;
2105;SDS011;1059;52.548;13.408;2022-12-19T06:38:06;30.13;;;16.43;;
2105;SDS011;1059;52.548;13.408;2022-12-19T06:40:33;27.97;;;16.00;;
2105;SDS011;1059;52.548;13.408;2022-12-19T06:43:17;32.90;;;17.67;;
2105;SDS011;1059;52.548;13.408;2022-12-19T06:45:44;30.63;;;16.97;;
2105;SDS011;1059;52.548;13.408;2022-12-19T06:48:11;26.10;;;14.90;;
2105;SDS011;1059;52.548;13.408;2022-12-19T06:50:38;28.50;;;17.17;;
2105;SDS011;1059;52.548;13.408;2022-12-19T06:53:06;27.20;;;15.50;;
2105;SDS011;1059;52.548;13.408;2022-12-19T06:55:34;31.63;;;16.70;;
2105;SDS011;1059;52.548;13.408;2022-12-19T06:58:01;34.73;;;16.33;;
2105;SDS011;1059;52.548;13.408;2022-12-19T07:00:28;31.73;;;15.63;;
2105;SDS011;1059;52.548;13.408;2022-12-19T07:02:55;26.17;;;16.47;;
2105;SDS011;1059;52.548;13.408;2022-12-19T07:05:24;32.87;;;17.10;;
2105;SDS011;1059;52.548;13.408;2022-12-19T07:07:51;25.57;;;16.17;;
2105;SDS011;1059;52.548;13.408;2022-12-19T07:10:19;29.37;;;16.17;;
2105;SDS011;1059;52.548;13.408;2022-12-19T07:12:46;27.37;;;16.73;;
2105;SDS011;1059;52.548;13.408;2022-12-19T07:15:14;32.00;;;16.80;;
2105;SDS011;1059;52.548;13.408;2022-12-19T07:17:41;29.20;;;16.43;;
2105;SDS011;1059;52.548;13.408;2022-12-19T07:20:08;31.53;;;15.83;;
2105;SDS011;1059;52.548;13.408;2022-12-19T07:22:36;31.23;;;15.70;;
2105;SDS011;1059;52.548;13.408;2022-12-19T07:25:03;28.30;;;15.53;;
2105;SDS011;1059;52.548;13.408;2022-12-19T07:27:32;24.73;;;14.50;;
2105;SDS011;1059;52.548;13.408;2022-12-19T07:30:00;29.43;;;16.03;;
2105;SDS011;1059;52.548;13.408;2022-12-19T07:32:27;31.80;;;17.80;;
2105;SDS011;1059;52.548;13.408;2022-12-19T07:34:54;28.07;;;16.03;;
2105;SDS011;1059;52.548;13.408;2022-12-19T07:37:21;31.43;;;16.53;;
2105;SDS011;1059;52.548;13.408;2022-12-19T07:39:48;25.90;;;15.40;;
2105;SDS011;1059;52.548;13.408;2022-12-19T07:42:16;27.70;;;15.73;;
2105;SDS011;1059;52.548;13.408;2022-12-19T07:44:44;30.97;;;15.80;;
2105;SDS011;1059;52.548;13.408;2022-12-19T07:47:11;28.47;;;16.70;;
2105;SDS011;1059;52.548;13.408;2022-12-19T07:49:38;30.63;;;17.50;;
2105;SDS011;1059;52.548;13.408;2022-12-19T07:52:05;26.73;;;15.33;;
2105;SDS011;1059;52.548;13.408;2022-12-19T07:54:32;28.30;;;15.73;;
2105;SDS011;1059;52.548;13.408;2022-12-19T07:56:59;29.90;;;17.37;;
2105;SDS011;1059;52.548;13.408;2022-12-19T07:59:26;28.60;;;16.27;;
2105;SDS011;1059;52.548;13.408;2022-12-19T08:01:54;30.47;;;15.90;;
2105;SDS011;1059;52.548;13.408;2022-12-19T08:04:21;31.23;;;16.70;;
2105;SDS011;1059;52.548;13.408;2022-12-19T08:06:48;28.97;;;15.40;;
2105;SDS011;1059;52.548;13.408;2022-12-19T08:09:15;25.20;;;14.93;;
2105;SDS011;1059;52.548;13.408;2022-12-19T08:11:42;33.97;;;14.80;;
2105;SDS011;1059;52.548;13.408;2022-12-19T08:14:09;27.83;;;14.57;;
2105;SDS011;1059;52.548;13.408;2022-12-19T08:16:36;28.83;;;16.03;;
2105;SDS011;1059;52.548;13.408;2022-12-19T08:19:04;25.67;;;15.00;;
2105;SDS011;1059;52.548;13.408;2022-12-19T08:21:30;29.53;;;15.50;;
2105;SDS011;1059;52.548;13.408;2022-12-19T08:23:57;26.17;;;15.90;;
2105;SDS011;1059;52.548;13.408;2022-12-19T08:26:25;26.90;;;15.50;;
2105;SDS011;1059;52.548;13.408;2022-12-19T08:28:52;29.60;;;15.47;;
2105;SDS011;1059;52.548;13.408;2022-12-19T08:31:22;28.73;;;14.40;;
2105;SDS011;1059;52.548;13.408;2022-12-19T08:33:50;27.87;;;16.40;;
2105;SDS011;1059;52.548;13.408;2022-12-19T08:36:19;32.50;;;15.57;;
2105;SDS011;1059;52.548;13.408;2022-12-19T08:38:46;27.77;;;15.53;;
2105;SDS011;1059;52.548;13.408;2022-12-19T08:41:14;26.87;;;16.03;;
2105;SDS011;1059;52.548;13.408;2022-12-19T08:43:42;29.50;;;16.30;;
2105;SDS011;1059;52.548;13.408;2022-12-19T08:46:13;28.37;;;14.97;;
2105;SDS011;1059;52.548;13.408;2022-12-19T08:48:42;28.60;;;15.27;;
2105;SDS011;1059;52.548;13.408;2022-12-19T08:51:09;28.33;;;15.17;;
2105;SDS011;1059;52.548;13.408;2022-12-19T08:53:40;28.80;;;16.40;;
2105;SDS011;1059;52.548;13.408;2022-12-19T08:56:09;28.80;;;14.50;;
2105;SDS011;1059;52.548;13.408;2022-12-19T08:58:39;31.27;;;15.83;;
2105;SDS011;1059;52.548;13.408;2022-12-19T09:01:06;25.70;;;16.00;;
2105;SDS011;1059;52.548;13.408;2022-12-19T09:03:35;29.77;;;16.53;;
2105;SDS011;1059;52.548;13.408;2022-12-19T09:06:03;26.87;;;15.13;;
2105;SDS011;1059;52.548;13.408;2022-12-19T09:08:31;28.00;;;15.57;;
2105;SDS011;1059;52.548;13.408;2022-12-19T09:11:01;30.63;;;15.90;;
2105;SDS011;1059;52.548;13.408;2022-12-19T09:13:30;27.73;;;14.60;;
2105;SDS011;1059;52.548;13.408;2022-12-19T09:15:59;25.03;;;15.53;;
2105;SDS011;1059;52.548;13.408;2022-12-19T09:18:27;27.13;;;14.50;;
2105;SDS011;1059;52.548;13.408;2022-12-19T09:20:53;26.70;;;15.60;;
2105;SDS011;1059;52.548;13.408;2022-12-19T09:23:21;27.07;;;15.67;;
2105;SDS011;1059;52.548;13.408;2022-12-19T09:25:48;26.20;;;14.43;;
2105;SDS011;1059;52.548;13.408;2022-12-19T09:28:16;26.03;;;15.63;;
2105;SDS011;1059;52.548;13.408;2022-12-19T09:30:43;27.57;;;15.70;;
2105;SDS011;1059;52.548;13.408;2022-12-19T09:33:10;27.77;;;16.20;;
2105;SDS011;1059;52.548;13.408;2022-12-19T09:35:37;29.23;;;16.13;;
2105;SDS011;1059;52.548;13.408;2022-12-19T09:38:04;27.53;;;15.67;;
2105;SDS011;1059;52.548;13.408;2022-12-19T09:40:34;30.60;;;15.30;;
2105;SDS011;1059;52.548;13.408;2022-12-19T09:43:15;32.13;;;16.20;;
2105;SDS011;1059;52.548;13.408;2022-12-19T09:45:55;26.23;;;15.07;;
2105;SDS011;1059;52.548;13.408;2022-12-19T09:48:29;26.30;;;15.10;;
2105;SDS011;1059;52.548;13.408;2022-12-19T09:50:57;31.57;;;15.40;;
2105;SDS011;1059;52.548;13.408;2022-12-19T09:53:32;31.90;;;14.30;;
2105;SDS011;1059;52.548;13.408;2022-12-19T09:56:03;32.20;;;15.10;;
2105;SDS011;1059;52.548;13.408;2022-12-19T09:58:38;30.57;;;14.23;;
2105;SDS011;1059;52.548;13.408;2022-12-19T10:01:12;32.20;;;16.40;;
2105;SDS011;1059;52.548;13.408;2022-12-19T10:03:45;26.00;;;15.20;;
2105;SDS011;1059;52.548;13.408;2022-12-19T10:06:16;23.20;;;14.13;;
2105;SDS011;1059;52.548;13.408;2022-12-19T10:08:44;25.40;;;14.47;;
2105;SDS011;1059;52.548;13.408;2022-12-19T10:11:18;28.63;;;15.83;;
2105;SDS011;1059;52.548;13.408;2022-12-19T10:14:04;26.40;;;15.40;;
2105;SDS011;1059;52.548;13.408;2022-12-19T10:16:47;23.50;;;14.57;;
2105;SDS011;1059;52.548;13.408;2022-12-19T10:19:29;27.73;;;16.00;;
2105;SDS011;1059;52.548;13.408;2022-12-19T10:22:05;28.60;;;14.77;;
2105;SDS011;1059;52.548;13.408;2022-12-19T10:24:49;27.30;;;14.93;;
2105;SDS011;1059;52.548;13.408;2022-12-19T10:27:28;28.30;;;15.17;;
2105;SDS011;1059;52.548;13.408;2022-12-19T10:30:03;25.97;;;15.13;;
2105;SDS011;1059;52.548;13.408;2022-12-19T10:32:39;27.87;;;15.37;;
2105;SDS011;1059;52.548;13.408;2022-12-19T10:35:13;37.20;;;17.80;;
2105;SDS011;1059;52.548;13.408;2022-12-19T10:37:43;26.27;;;16.93;;
2105;SDS011;1059;52.548;13.408;2022-12-19T10:40:17;27.20;;;14.63;;
2105;SDS011;1059;52.548;13.408;2022-12-19T10:42:50;28.10;;;15.37;;
2105;SDS011;1059;52.548;13.408;2022-12-19T10:45:22;30.33;;;16.53;;
2105;SDS011;1059;52.548;13.408;2022-12-19T10:47:50;28.83;;;15.20;;
2105;SDS011;1059;52.548;13.408;2022-12-19T10:50:22;32.30;;;15.73;;
2105;SDS011;1059;52.548;13.408;2022-12-19T10:52:52;24.97;;;14.97;;
2105;SDS011;1059;52.548;13.408;2022-12-19T10:55:21;24.60;;;14.37;;
2105;SDS011;1059;52.548;13.408;2022-12-19T10:57:59;31.30;;;15.90;;
2105;SDS011;1059;52.548;13.408;2022-12-19T11:00:37;25.93;;;15.30;;
2105;SDS011;1059;52.548;13.408;2022-12-19T11:03:12;25.37;;;14.60;;
2105;SDS011;1059;52.548;13.408;2022-12-19T11:05:42;27.37;;;15.77;;
2105;SDS011;1059;52.548;13.408;2022-12-19T11:08:15;24.97;;;15.37;;
2105;SDS011;1059;52.548;13.408;2022-12-19T11:10:45;26.30;;;14.57;;
2105;SDS011;1059;52.548;13.408;2022-12-19T11:13:16;29.83;;;16.43;;
2105;SDS011;1059;52.548;13.408;2022-12-19T11:15:49;27.13;;;13.83;;
2105;SDS011;1059;52.548;13.408;2022-12-19T11:18:17;30.10;;;15.10;;
2105;SDS011;1059;52.548;13.408;2022-12-19T11:20:52;31.93;;;16.27;;
2105;SDS011;1059;52.548;13.408;2022-12-19T11:23:24;25.77;;;15.83;;
2105;SDS011;1059;52.548;13.408;2022-12-19T11:25:54;32.00;;;15.57;;
2105;SDS011;1059;52.548;13.408;2022-12-19T11:28:23;26.90;;;15.97;;
2105;SDS011;1059;52.548;13.408;2022-12-19T11:30:55;29.00;;;14.17;;
2105;SDS011;1059;52.548;13.408;2022-12-19T11:33:24;27.60;;;15.83;;
2105;SDS011;1059;52.548;13.408;2022-12-19T11:35:51;27.43;;;15.07;;
2105;SDS011;1059;52.548;13.408;2022-12-19T11:38:20;26.00;;;15.57;;
2105;SDS011;1059;52.548;13.408;2022-12-19T11:40:55;32.03;;;15.07;;
2105;SDS011;1059;52.548;13.408;2022-12-19T11:43:25;27.93;;;15.13;;
2105;SDS011;1059;52.548;13.408;2022-12-19T11:45:59;32.20;;;16.43;;
2105;SDS011;1059;52.548;13.408;2022-12-19T11:48:33;29.33;;;14.67;;
2105;SDS011;1059;52.548;13.408;2022-12-19T11:51:05;30.10;;;15.53;;
2105;SDS011;1059;52.548;13.408;2022-12-19T11:53:42;26.07;;;15.50;;
2105;SDS011;1059;52.548;13.408;2022-12-19T11:56:15;30.33;;;16.47;;
2105;SDS011;1059;52.548;13.408;2022-12-19T11:58:47;26.73;;;15.50;;
2105;SDS011;1059;52.548;13.408;2022-12-19T12:01:19;29.40;;;14.93;;
2105;SDS011;1059;52.548;13.408;2022-12-19T12:03:58;34.47;;;16.67;;
2105;SDS011;1059;52.548;13.408;2022-12-19T12:06:34;28.13;;;15.70;;
2105;SDS011;1059;52.548;13.408;2022-12-19T12:09:12;27.00;;;14.70;;
2105;SDS011;1059;52.548;13.408;2022-12-19T12:11:49;33.07;;;16.93;;
2105;SDS011;1059;52.548;13.408;2022-12-19T12:14:26;28.30;;;15.27;;
2105;SDS011;1059;52.548;13.408;2022-12-19T12:17:07;32.90;;;16.70;;
2105;SDS011;1059;52.548;13.408;2022-12-19T12:19:50;31.20;;;17.37;;
2105;SDS011;1059;52.548;13.408;2022-12-19T12:22:33;30.67;;;15.73;;
2105;SDS011;1059;52.548;13.408;2022-12-19T12:25:13;33.00;;;18.33;;
2105;SDS011;1059;52.548;13.408;2022-12-19T12:27:49;36.43;;;16.20;;
2105;SDS011;1059;52.548;13.408;2022-12-19T12:30:22;29.63;;;14.70;;
2105;SDS011;1059;52.548;13.408;2022-12-19T12:32:55;32.10;;;15.80;;
2105;SDS011;1059;52.548;13.408;2022-12-19T12:35:32;31.13;;;15.87;;
2105;SDS011;1059;52.548;13.408;2022-12-19T12:38:15;30.70;;;18.03;;
2105;SDS011;1059;52.548;13.408;2022-12-19T12:40:58;26.80;;;15.30;;
2105;SDS011;1059;52.548;13.408;2022-12-19T12:43:44;33.47;;;15.77;;
2105;SDS011;1059;52.548;13.408;2022-12-19T12:46:22;26.97;;;14.20;;
2105;SDS011;1059;52.548;13.408;2022-12-19T12:48:54;29.33;;;17.23;;
2105;SDS011;1059;52.548;13.408;2022-12-19T12:51:25;29.33;;;16.50;;
2105;SDS011;1059;52.548;13.408;2022-12-19T12:53:54;29.53;;;16.50;;
2105;SDS011;1059;52.548;13.408;2022-12-19T12:56:27;28.90;;;16.70;;
2105;SDS011;1059;52.548;13.408;2022-12-19T13:01:49;26.40;;;15.30;;
2105;SDS011;1059;52.548;13.408;2022-12-19T13:04:20;30.67;;;17.47;;
2105;SDS011;1059;52.548;13.408;2022-12-19T13:07:12;29.17;;;14.83;;
2105;SDS011;1059;52.548;13.408;2022-12-19T13:09:44;27.80;;;15.80;;
2105;SDS011;1059;52.548;13.408;2022-12-19T13:12:17;31.10;;;15.43;;
2105;SDS011;1059;52.548;13.408;2022-12-19T13:15:17;31.13;;;17.30;;
2105;SDS011;1059;52.548;13.408;2022-12-19T13:20:59;31.90;;;16.23;;
2105;SDS011;1059;52.548;13.408;2022-12-19T13:26:47;29.50;;;16.70;;
2105;SDS011;1059;52.548;13.408;2022-12-19T13:29:32;29.83;;;17.53;;
2105;SDS011;1059;52.548;13.408;2022-12-19T13:32:15;30.90;;;16.37;;
2105;SDS011;1059;52.548;13.408;2022-12-19T13:34:52;32.63;;;17.20;;
2105;SDS011;1059;52.548;13.408;2022-12-19T13:37:31;30.97;;;18.00;;
2105;SDS011;1059;52.548;13.408;2022-12-19T13:42:56;31.30;;;17.63;;
2105;SDS011;1059;52.548;13.408;2022-12-19T13:45:52;32.00;;;17.13;;
2105;SDS011;1059;52.548;13.408;2022-12-19T13:48:30;32.63;;;16.90;;
2105;SDS011;1059;52.548;13.408;2022-12-19T13:51:02;29.47;;;17.37;;
2105;SDS011;1059;52.548;13.408;2022-12-19T13:53:33;32.73;;;18.20;;
2105;SDS011;1059;52.548;13.408;2022-12-19T13:56:01;33.40;;;16.90;;
2105;SDS011;1059;52.548;13.408;2022-12-19T13:58:30;28.37;;;17.20;;
2105;SDS011;1059;52.548;13.408;2022-12-19T14:01:00;34.57;;;17.13;;
2105;SDS011;1059;52.548;13.408;2022-12-19T14:03:33;35.00;;;18.60;;
2105;SDS011;1059;52.548;13.408;2022-12-19T14:06:07;32.53;;;19.97;;
2105;SDS011;1059;52.548;13.408;2022-12-19T14:08:37;34.30;;;20.00;;
2105;SDS011;1059;52.548;13.408;2022-12-19T14:11:05;34.87;;;20.13;;
2105;SDS011;1059;52.548;13.408;2022-12-19T14:13:34;37.23;;;19.90;;
2105;SDS011;1059;52.548;13.408;2022-12-19T14:16:26;35.53;;;18.23;;
2105;SDS011;1059;52.548;13.408;2022-12-19T14:18:53;36.27;;;19.00;;
2105;SDS011;1059;52.548;13.408;2022-12-19T14:21:21;33.10;;;19.60;;
2105;SDS011;1059;52.548;13.408;2022-12-19T14:23:53;36.80;;;19.70;;
2105;SDS011;1059;52.548;13.408;2022-12-19T14:26:34;36.47;;;18.80;;
2105;SDS011;1059;52.548;13.408;2022-12-19T14:29:02;39.33;;;18.90;;
2105;SDS011;1059;52.548;13.408;2022-12-19T14:31:33;34.43;;;19.83;;
2105;SDS011;1059;52.548;13.408;2022-12-19T14:34:03;38.17;;;19.30;;
2105;SDS011;1059;52.548;13.408;2022-12-19T14:36:31;38.70;;;21.17;;
2105;SDS011;1059;52.548;13.408;2022-12-19T14:39:01;36.83;;;19.63;;
2105;SDS011;1059;52.548;13.408;2022-12-19T14:41:38;37.37;;;19.50;;
2105;SDS011;1059;52.548;13.408;2022-12-19T14:44:40;36.17;;;20.30;;
2105;SDS011;1059;52.548;13.408;2022-12-19T14:47:10;43.40;;;20.83;;
2105;SDS011;1059;52.548;13.408;2022-12-19T14:49:37;39.07;;;22.23;;
2105;SDS011;1059;52.548;13.408;2022-12-19T14:52:30;32.23;;;19.87;;
2105;SDS011;1059;52.548;13.408;2022-12-19T14:55:13;37.73;;;20.50;;
2105;SDS011;1059;52.548;13.408;2022-12-19T14:57:56;41.77;;;21.40;;
2105;SDS011;1059;52.548;13.408;2022-12-19T15:00:31;46.30;;;22.90;;
2105;SDS011;1059;52.548;13.408;2022-12-19T15:03:07;43.27;;;22.47;;
2105;SDS011;1059;52.548;13.408;2022-12-19T15:05:34;35.53;;;20.57;;
2105;SDS011;1059;52.548;13.408;2022-12-19T15:08:01;38.07;;;19.13;;
2105;SDS011;1059;52.548;13.408;2022-12-19T15:10:30;38.03;;;20.00;;
2105;SDS011;1059;52.548;13.408;2022-12-19T15:13:01;42.10;;;21.00;;
2105;SDS011;1059;52.548;13.408;2022-12-19T15:15:50;45.50;;;21.70;;